Time;durP1;ratioP1;P1;durP2;ratioP2;P2;SDS_P1;SDS_P2;PMS_P1;PMS_P2;Temp;Humidity;BMP_temperature;BMP_pressure;BME280_temperature;BME280_humidity;BME280_pressure;Samples;Min_cycle;Max_cycle;Signal;HPM_P1;HPM_P2
2022/05/21 00:01:08;;;;;;;2.10;2.00;;;21.40;51.30;;;;;;5038690;28;20542;-57
2022/05/21 00:03:34;;;;;;;2.10;2.00;;;21.40;51.30;;;;;;5037753;28;20215;-57
2022/05/21 00:06:00;;;;;;;1.80;1.70;;;21.40;51.30;;;;;;5032476;28;20308;-57
2022/05/21 00:08:25;;;;;;;1.90;1.80;;;21.40;51.30;;;;;;5035381;28;20211;-58
2022/05/21 00:10:51;;;;;;;2.10;2.00;;;21.40;51.30;;;;;;5039335;28;20230;-57
2022/05/21 00:13:16;;;;;;;1.80;1.70;;;21.40;51.30;;;;;;5040554;28;20759;-58
2022/05/21 00:15:42;;;;;;;1.80;1.70;;;21.40;51.30;;;;;;5037864;28;20222;-57
2022/05/21 00:18:08;;;;;;;1.83;1.73;;;21.40;51.30;;;;;;5039449;28;20234;-57
2022/05/21 00:20:49;;;;;;;1.80;1.70;;;21.40;51.30;;;;;;5029430;28;20219;-57
2022/05/21 00:23:25;;;;;;;1.80;1.70;;;21.40;51.30;;;;;;5036958;28;20444;-57
2022/05/21 00:25:57;;;;;;;1.80;1.70;;;21.40;51.30;;;;;;5039756;28;20459;-57
2022/05/21 00:28:23;;;;;;;1.87;1.77;;;21.40;51.30;;;;;;5042384;28;20531;-57
2022/05/21 00:30:48;;;;;;;1.80;1.70;;;21.40;51.30;;;;;;5039082;28;20526;-57
2022/05/21 00:33:14;;;;;;;1.90;1.80;;;21.40;51.30;;;;;;5039217;28;20215;-58
2022/05/21 00:35:40;;;;;;;2.03;1.93;;;21.40;51.30;;;;;;5036248;28;20688;-57
2022/05/21 00:38:05;;;;;;;1.70;1.60;;;21.40;51.30;;;;;;5039066;28;20245;-58
2022/05/21 00:40:31;;;;;;;1.70;1.60;;;21.40;51.30;;;;;;5038547;28;20723;-57
2022/05/21 00:42:57;;;;;;;1.87;1.77;;;21.40;51.30;;;;;;5017355;28;20222;-57
2022/05/21 00:45:24;;;;;;;1.80;1.70;;;21.40;51.30;;;;;;5036560;28;20219;-57
2022/05/21 00:47:49;;;;;;;1.70;1.60;;;21.40;51.30;;;;;;5037746;28;20789;-58
2022/05/21 00:50:18;;;;;;;1.80;1.70;;;21.40;51.30;;;;;;5039265;28;20423;-57
2022/05/21 00:52:44;;;;;;;1.60;1.50;;;21.40;51.30;;;;;;5035856;28;21027;-58
2022/05/21 00:55:13;;;;;;;1.80;1.70;;;21.40;51.30;;;;;;5031394;28;20439;-58
2022/05/21 00:57:44;;;;;;;1.87;1.77;;;21.40;51.30;;;;;;5028239;28;20440;-58
2022/05/21 01:00:18;;;;;;;1.90;1.80;;;21.40;51.20;;;;;;5033220;28;20462;-57
2022/05/21 01:02:51;;;;;;;1.70;1.60;;;21.40;51.30;;;;;;5084331;23;20813;-75
2022/05/21 01:05:20;;;;;;;1.70;1.60;;;21.40;51.30;;;;;;5064701;28;20584;-75
2022/05/21 01:07:47;;;;;;;1.70;1.60;;;21.40;51.30;;;;;;5060074;28;20513;-75
2022/05/21 01:10:16;;;;;;;1.57;1.47;;;21.40;51.30;;;;;;5062783;28;20453;-76
2022/05/21 01:12:47;;;;;;;1.70;1.60;;;21.40;51.30;;;;;;5054658;28;20444;-75
2022/05/21 01:15:17;;;;;;;1.70;1.60;;;21.40;51.30;;;;;;5062844;28;20461;-75
2022/05/21 01:17:43;;;;;;;1.60;1.50;;;21.40;51.30;;;;;;5060034;28;20948;-75
2022/05/21 01:20:15;;;;;;;1.50;1.40;;;21.40;51.20;;;;;;5059863;28;20450;-74
2022/05/21 01:22:45;;;;;;;1.50;1.40;;;21.40;51.20;;;;;;5062035;28;20443;-75
2022/05/21 01:25:13;;;;;;;1.40;1.30;;;21.40;51.20;;;;;;5061558;28;20981;-76
2022/05/21 01:27:39;;;;;;;1.90;1.80;;;21.40;51.20;;;;;;5062353;28;20466;-75
2022/05/21 01:30:08;;;;;;;1.77;1.67;;;21.40;51.20;;;;;;5060558;28;20443;-74
2022/05/21 01:32:34;;;;;;;1.70;1.60;;;21.40;51.20;;;;;;5062276;28;20961;-75
2022/05/21 01:35:00;;;;;;;1.80;1.70;;;21.40;51.20;;;;;;5054524;28;20464;-75
2022/05/21 01:37:26;;;;;;;1.60;1.50;;;21.40;51.10;;;;;;5062654;28;20257;-75
2022/05/21 01:39:52;;;;;;;1.67;1.57;;;21.40;51.20;;;;;;5064302;28;20217;-75
2022/05/21 01:42:17;;;;;;;1.80;1.70;;;21.40;51.10;;;;;;5057466;28;21045;-75
2022/05/21 01:44:46;;;;;;;1.70;1.60;;;21.40;51.20;;;;;;5059248;28;20590;-75
2022/05/21 01:47:15;;;;;;;1.67;1.57;;;21.40;51.10;;;;;;5059878;28;20248;-75
2022/05/21 01:49:42;;;;;;;1.63;1.53;;;21.40;51.10;;;;;;5060787;28;20447;-75
2022/05/21 01:52:09;;;;;;;1.40;1.30;;;21.30;51.00;;;;;;5061595;28;20517;-75
2022/05/21 01:54:35;;;;;;;1.87;1.77;;;21.40;51.10;;;;;;5061102;28;20819;-75
2022/05/21 01:57:01;;;;;;;1.60;1.50;;;21.40;51.00;;;;;;5059106;28;20534;-75
2022/05/21 01:59:27;;;;;;;2.13;2.03;;;21.40;51.00;;;;;;5058546;28;20355;-75
2022/05/21 02:01:53;;;;;;;1.57;1.47;;;21.40;51.00;;;;;;5059861;28;20844;-75
2022/05/21 02:04:19;;;;;;;1.60;1.50;;;21.40;51.00;;;;;;5061434;28;20509;-75
2022/05/21 02:06:46;;;;;;;1.90;1.80;;;21.40;51.00;;;;;;5060963;28;20455;-75
2022/05/21 02:09:12;;;;;;;1.90;1.80;;;21.30;50.90;;;;;;5057973;28;20451;-75
2022/05/21 02:11:39;;;;;;;1.40;1.30;;;21.40;51.80;;;;;;5058508;28;20446;-75
2022/05/21 02:14:05;;;;;;;1.60;1.50;;;21.40;51.00;;;;;;5062593;28;20407;-75
2022/05/21 02:16:33;;;;;;;1.80;1.70;;;21.40;51.00;;;;;;5063676;28;20481;-75
2022/05/21 02:19:01;;;;;;;1.70;1.60;;;21.40;51.00;;;;;;5056443;28;21731;-75
2022/05/21 02:21:27;;;;;;;1.60;1.50;;;21.30;50.90;;;;;;5058826;28;20502;-75
2022/05/21 02:23:52;;;;;;;1.60;1.50;;;21.40;51.00;;;;;;5054898;28;20443;-74
2022/05/21 02:26:18;;;;;;;1.60;1.50;;;21.30;50.80;;;;;;5062474;28;20481;-75
2022/05/21 02:28:43;;;;;;;1.63;1.53;;;21.40;50.90;;;;;;5057569;28;20218;-75
2022/05/21 02:31:09;;;;;;;1.60;1.50;;;21.40;50.90;;;;;;5060562;28;20214;-75
2022/05/21 02:33:34;;;;;;;2.50;1.40;;;21.40;50.90;;;;;;5058470;28;20221;-75
2022/05/21 02:36:00;;;;;;;1.50;1.40;;;21.30;50.80;;;;;;5062955;28;20214;-75
2022/05/21 02:41:12;;;;;;;1.60;1.50;;;21.30;50.80;;;;;;5059289;28;20241;-75
2022/05/21 02:43:38;;;;;;;1.53;1.43;;;21.30;50.70;;;;;;5057206;28;20533;-75
2022/05/21 02:46:04;;;;;;;1.60;1.50;;;21.30;50.70;;;;;;5063043;28;20486;-75
2022/05/21 02:48:30;;;;;;;1.50;1.40;;;21.30;51.50;;;;;;5055308;28;20407;-75
2022/05/21 02:50:56;;;;;;;1.40;1.30;;;21.40;50.90;;;;;;5059021;28;20558;-75
2022/05/21 02:53:22;;;;;;;1.60;1.50;;;21.30;50.80;;;;;;5059492;28;20469;-75
2022/05/21 02:55:50;;;;;;;1.30;1.20;;;21.30;50.80;;;;;;5056681;28;20222;-75
2022/05/21 02:58:16;;;;;;;1.50;1.40;;;21.30;50.70;;;;;;5064205;28;20788;-72
2022/05/21 03:00:43;;;;;;;1.60;1.50;;;21.30;50.70;;;;;;5058466;28;20559;-74
2022/05/21 03:03:09;;;;;;;1.50;1.40;;;21.30;50.70;;;;;;5061334;28;20434;-74
2022/05/21 03:05:35;;;;;;;1.40;1.30;;;21.30;50.70;;;;;;5057713;28;20430;-74
2022/05/21 03:10:20;;;;;;;1.53;1.43;;;21.30;50.70;;;;;;5057528;28;20229;-74
2022/05/21 03:10:46;;;;;;;1.70;1.60;;;21.30;50.70;;;;;;5058625;28;20442;-74
2022/05/21 03:13:12;;;;;;;1.30;1.20;;;21.30;50.70;;;;;;5062891;28;20439;-74
2022/05/21 03:15:38;;;;;;;1.40;1.30;;;21.30;50.70;;;;;;5059514;28;20251;-74
2022/05/21 03:18:07;;;;;;;1.50;1.40;;;21.30;50.70;;;;;;5054181;28;20638;-74
2022/05/21 03:20:33;;;;;;;1.30;1.20;;;21.30;50.60;;;;;;5056277;28;20463;-74
2022/05/21 03:22:59;;;;;;;1.40;1.30;;;21.30;50.60;;;;;;5057709;28;20436;-74
2022/05/21 03:25:25;;;;;;;1.53;1.43;;;21.40;50.80;;;;;;5061589;28;20782;-74
2022/05/21 03:27:51;;;;;;;1.50;1.40;;;21.30;50.60;;;;;;5061577;28;20226;-74
2022/05/21 03:30:20;;;;;;;1.20;1.10;;;21.30;50.70;;;;;;5056291;28;20237;-74
2022/05/21 03:32:46;;;;;;;1.30;1.20;;;21.30;50.70;;;;;;5054725;28;20942;-74
2022/05/21 03:35:13;;;;;;;1.37;1.27;;;21.30;50.60;;;;;;5056310;28;20444;-74
2022/05/21 03:37:38;;;;;;;1.50;1.40;;;21.30;50.70;;;;;;5060072;28;20585;-74
2022/05/21 03:40:06;;;;;;;1.47;1.37;;;21.30;50.70;;;;;;5060319;28;20429;-74
2022/05/21 03:42:32;;;;;;;1.50;1.40;;;21.30;50.60;;;;;;5061416;28;20222;-74
2022/05/21 03:44:58;;;;;;;1.40;1.30;;;21.30;50.70;;;;;;5057209;28;20441;-74
2022/05/21 03:47:23;;;;;;;1.50;1.40;;;21.30;50.70;;;;;;5060558;28;20226;-74
2022/05/21 03:49:49;;;;;;;1.30;1.20;;;21.30;50.60;;;;;;5060284;28;20221;-74
2022/05/21 03:52:14;;;;;;;1.37;1.27;;;21.30;50.70;;;;;;5063966;28;20232;-74
2022/05/21 03:54:40;;;;;;;1.33;1.23;;;21.30;50.60;;;;;;5065263;28;20301;-74
2022/05/21 03:57:06;;;;;;;1.50;1.40;;;21.30;50.70;;;;;;5061573;28;20221;-74
2022/05/21 03:59:33;;;;;;;1.40;1.30;;;21.30;50.60;;;;;;5059999;28;20674;-74
2022/05/21 04:01:58;;;;;;;1.40;1.30;;;21.30;50.60;;;;;;5066843;28;20295;-74
2022/05/21 04:04:24;;;;;;;1.50;1.40;;;21.30;50.60;;;;;;5064492;28;20439;-74
2022/05/21 04:06:49;;;;;;;1.47;1.37;;;21.30;50.60;;;;;;5060728;28;20221;-74
2022/05/21 04:09:15;;;;;;;1.30;1.20;;;21.30;50.60;;;;;;5061373;28;20632;-74
2022/05/21 04:11:41;;;;;;;1.27;1.17;;;21.30;50.60;;;;;;5062000;28;20692;-74
2022/05/21 04:14:07;;;;;;;1.30;1.20;;;21.30;50.60;;;;;;5062657;28;20222;-74
2022/05/21 04:16:34;;;;;;;1.33;1.23;;;21.30;50.60;;;;;;5065151;28;20300;-74
2022/05/21 04:19:00;;;;;;;1.30;1.20;;;21.30;50.60;;;;;;5063409;28;20427;-74
2022/05/21 04:21:26;;;;;;;1.43;1.33;;;21.30;50.50;;;;;;5060844;28;20439;-74
2022/05/21 04:23:52;;;;;;;2.17;1.30;;;21.30;50.60;;;;;;5059560;28;20560;-74
2022/05/21 04:26:18;;;;;;;1.30;1.20;;;21.30;50.60;;;;;;5067921;28;20465;-74
2022/05/21 04:28:43;;;;;;;1.40;1.30;;;21.30;50.60;;;;;;5059810;28;20218;-74
2022/05/21 04:31:09;;;;;;;1.30;1.20;;;21.30;50.50;;;;;;5061773;28;20244;-74
2022/05/21 04:33:34;;;;;;;1.33;1.23;;;21.30;50.50;;;;;;5061225;28;20219;-74
2022/05/21 04:36:18;;;;;;;1.50;1.40;;;21.30;50.50;;;;;;5061420;28;20218;-74
2022/05/21 04:38:45;;;;;;;1.40;1.30;;;21.30;50.60;;;;;;5064090;28;20982;-74
2022/05/21 04:41:11;;;;;;;4.63;1.20;;;21.30;50.50;;;;;;5063607;28;20492;-74
2022/05/21 04:43:36;;;;;;;1.23;1.13;;;21.30;50.50;;;;;;5062689;28;20451;-74
2022/05/21 04:46:02;;;;;;;1.20;1.10;;;21.30;50.50;;;;;;5061770;28;20221;-73
2022/05/21 04:48:28;;;;;;;1.30;1.20;;;21.30;50.50;;;;;;5064092;28;20624;-76
2022/05/21 04:50:59;;;;;;;1.47;1.20;;;21.30;50.40;;;;;;5064474;28;20222;-76
2022/05/21 04:53:25;;;;;;;1.53;1.43;;;21.30;50.40;;;;;;5061663;28;20680;-76
2022/05/21 04:55:50;;;;;;;1.20;1.10;;;21.30;50.30;;;;;;5061155;28;20420;-75
2022/05/21 04:58:16;;;;;;;1.23;1.13;;;21.40;50.50;;;;;;5056348;28;20988;-75
2022/05/21 05:00:41;;;;;;;1.27;1.17;;;21.30;50.30;;;;;;5064613;28;20565;-75
2022/05/21 05:03:15;;;;;;;1.20;1.10;;;21.40;50.40;;;;;;5060957;28;20694;-75
2022/05/21 05:05:42;;;;;;;1.27;1.17;;;21.40;50.40;;;;;;5062583;28;20296;-75
2022/05/21 05:08:08;;;;;;;1.10;1.00;;;21.40;50.40;;;;;;5073578;28;20533;-75
2022/05/21 05:10:36;;;;;;;1.30;1.20;;;21.40;50.30;;;;;;5061612;28;20451;-75
2022/05/21 05:13:02;;;;;;;1.33;1.23;;;21.40;51.10;;;;;;5066348;28;21012;-76
2022/05/21 05:15:28;;;;;;;1.70;1.60;;;21.40;50.30;;;;;;5062349;28;20512;-76
2022/05/21 05:18:08;;;;;;;1.30;1.20;;;21.40;50.30;;;;;;5060150;28;20955;-75
2022/05/21 05:20:35;;;;;;;1.20;1.10;;;21.40;50.30;;;;;;5059779;28;20694;-76
2022/05/21 05:25:32;;;;;;;3.20;1.13;;;21.40;50.30;;;;;;5026327;28;20478;-57
2022/05/21 05:27:58;;;;;;;1.60;1.50;;;21.40;50.40;;;;;;5029239;28;20468;-58
2022/05/21 05:30:24;;;;;;;4.97;1.80;;;21.40;50.30;;;;;;5028238;28;20445;-58
2022/05/21 05:32:50;;;;;;;3.00;1.77;;;21.40;49.80;;;;;;5026155;28;20234;-58
2022/05/21 05:35:16;;;;;;;7.53;1.70;;;21.40;49.30;;;;;;4973801;28;20548;-58
2022/05/21 05:37:42;;;;;;;2.30;1.80;;;21.40;48.80;;;;;;5030581;28;20471;-58
2022/05/21 05:40:16;;;;;;;3.43;1.63;;;21.40;48.30;;;;;;4964885;28;20449;-58
2022/05/21 05:42:41;;;;;;;3.27;2.00;;;21.40;48.00;;;;;;5003559;28;20215;-58
2022/05/21 05:45:08;;;;;;;2.00;1.70;;;21.40;47.60;;;;;;5027546;28;20459;-58
2022/05/21 05:47:34;;;;;;;4.87;1.60;;;21.50;47.40;;;;;;5026531;28;20258;-57
2022/05/21 05:50:00;;;;;;;2.60;1.87;;;21.40;47.00;;;;;;5028609;28;20894;-58
2022/05/21 05:52:27;;;;;;;1.93;1.57;;;21.50;46.80;;;;;;4985239;28;20206;-57
2022/05/21 05:54:53;;;;;;;2.63;1.70;;;21.50;46.60;;;;;;5027252;28;20455;-57
2022/05/21 05:57:18;;;;;;;2.33;1.60;;;21.50;46.20;;;;;;5022981;28;20464;-58
2022/05/21 05:59:50;;;;;;;3.33;1.47;;;21.50;46.00;;;;;;5027406;28;20427;-58
2022/05/21 06:05:10;;;;;;;2.03;1.83;;;21.50;46.00;;;;;;5027491;28;20554;-58
2022/05/21 06:07:50;;;;;;;1.90;1.70;;;21.50;46.00;;;;;;5022800;28;20476;-58
2022/05/21 06:10:20;;;;;;;1.90;1.60;;;21.50;46.00;;;;;;5026948;28;20444;-60
2022/05/21 06:12:47;;;;;;;1.33;1.23;;;21.50;46.00;;;;;;5027365;28;20463;-60
2022/05/21 06:15:13;;;;;;;1.50;1.40;;;21.40;45.90;;;;;;5028397;28;20874;-60
2022/05/21 06:17:39;;;;;;;1.70;1.60;;;21.50;46.20;;;;;;5025713;28;21036;-60
2022/05/21 06:20:08;;;;;;;1.53;1.43;;;21.50;46.50;;;;;;5026768;28;20444;-60
2022/05/21 06:22:33;;;;;;;3.87;1.43;;;21.50;46.70;;;;;;5024145;28;20440;-58
2022/05/21 06:25:00;;;;;;;2.70;1.70;;;21.50;46.80;;;;;;5024562;28;20476;-58
2022/05/21 06:27:25;;;;;;;1.97;1.40;;;21.50;46.80;;;;;;5025364;28;20231;-58
2022/05/21 06:29:51;;;;;;;3.57;1.50;;;21.50;47.00;;;;;;5028351;28;20477;-58
2022/05/21 06:32:16;;;;;;;1.70;1.60;;;21.60;47.20;;;;;;5027422;28;20234;-58
2022/05/21 06:34:42;;;;;;;2.67;1.60;;;21.60;47.30;;;;;;5027607;28;20231;-58
2022/05/21 06:37:10;;;;;;;1.70;1.60;;;21.60;47.50;;;;;;5028537;28;20700;-58
2022/05/21 06:39:37;;;;;;;1.70;1.60;;;21.60;47.60;;;;;;5027199;28;20285;-58
2022/05/21 06:42:03;;;;;;;1.60;1.50;;;21.60;47.70;;;;;;5028220;28;20960;-58
2022/05/21 06:44:29;;;;;;;3.90;1.53;;;21.60;47.80;;;;;;5026066;28;20508;-58
2022/05/21 06:46:56;;;;;;;1.63;1.50;;;21.50;47.80;;;;;;5027907;28;20480;-57
2022/05/21 06:49:22;;;;;;;2.00;1.80;;;21.60;47.90;;;;;;5026583;28;20453;-58
2022/05/21 06:51:52;;;;;;;1.90;1.70;;;21.50;47.90;;;;;;5024537;28;20444;-57
2022/05/21 06:54:18;;;;;;;1.63;1.53;;;21.50;48.10;;;;;;5024554;28;20480;-57
2022/05/21 06:56:43;;;;;;;2.13;1.93;;;21.50;48.10;;;;;;5027998;28;20480;-58
2022/05/21 06:59:09;;;;;;;3.83;1.53;;;21.50;48.10;;;;;;5027573;28;20226;-57
2022/05/21 07:01:34;;;;;;;2.57;1.90;;;21.50;48.20;;;;;;5027553;28;20237;-58
2022/05/21 07:04:00;;;;;;;3.17;2.47;;;21.50;48.20;;;;;;5025235;28;20237;-58
2022/05/21 07:09:10;;;;;;;1.70;1.60;;;21.50;48.30;;;;;;5026402;28;20305;-58
2022/05/21 07:11:37;;;;;;;3.83;1.93;;;21.50;48.40;;;;;;5026190;28;20555;-57
2022/05/21 07:14:03;;;;;;;1.83;1.50;;;21.50;48.40;;;;;;5028475;28;20246;-57
2022/05/21 07:16:29;;;;;;;4.80;2.97;;;21.50;48.40;;;;;;5028279;28;20460;-57
2022/05/21 07:18:55;;;;;;;2.47;1.90;;;21.50;48.40;;;;;;5031840;28;20448;-58
2022/05/21 07:21:20;;;;;;;2.00;1.90;;;21.50;48.40;;;;;;5030326;28;20632;-57
2022/05/21 07:23:46;;;;;;;2.10;1.90;;;21.50;48.40;;;;;;5031252;28;20456;-58
2022/05/21 07:26:13;;;;;;;2.33;2.00;;;21.50;48.40;;;;;;5030920;28;20223;-58
2022/05/21 07:28:38;;;;;;;1.70;1.60;;;21.50;48.40;;;;;;5031118;28;20494;-58
2022/05/21 07:31:04;;;;;;;2.80;1.83;;;21.50;48.40;;;;;;5028698;28;20457;-58
2022/05/21 07:33:30;;;;;;;1.97;1.87;;;21.50;48.50;;;;;;5028009;28;20700;-57
2022/05/21 07:35:56;;;;;;;1.93;1.80;;;21.50;48.40;;;;;;5031262;28;20470;-58
2022/05/21 07:38:21;;;;;;;1.83;1.73;;;21.50;48.40;;;;;;5031580;28;20211;-58
2022/05/21 07:40:48;;;;;;;1.83;1.73;;;21.50;48.50;;;;;;5028900;28;20214;-57
2022/05/21 07:43:18;;;;;;;1.73;1.63;;;21.50;48.50;;;;;;5031139;28;20302;-57
2022/05/21 07:45:45;;;;;;;2.17;1.97;;;21.50;48.50;;;;;;5027779;28;20437;-58
2022/05/21 07:48:13;;;;;;;2.37;1.90;;;21.50;48.50;;;;;;5031947;28;20971;-57
2022/05/21 07:50:40;;;;;;;2.83;1.97;;;21.50;48.50;;;;;;5030692;28;21183;-58
2022/05/21 07:53:24;;;;;;;2.70;1.93;;;21.50;48.60;;;;;;5031768;28;20459;-57
2022/05/21 07:55:52;;;;;;;1.97;1.87;;;21.50;48.40;;;;;;5029289;28;20452;-57
2022/05/21 07:58:23;;;;;;;1.77;1.60;;;21.40;48.50;;;;;;5028600;28;20461;-58
2022/05/21 08:00:49;;;;;;;1.93;1.83;;;21.50;48.50;;;;;;5029043;28;20448;-57
2022/05/21 08:03:14;;;;;;;2.23;1.83;;;21.50;48.50;;;;;;5027439;28;20544;-56
2022/05/21 08:05:42;;;;;;;2.87;2.03;;;21.40;49.20;;;;;;5028454;28;20531;-57
2022/05/21 08:08:09;;;;;;;1.97;1.77;;;21.50;48.50;;;;;;5029524;28;20238;-57
2022/05/21 08:10:40;;;;;;;2.20;1.90;;;21.40;48.50;;;;;;5030009;28;20509;-57
2022/05/21 08:13:06;;;;;;;1.90;1.80;;;21.40;48.50;;;;;;5028912;28;20463;-57
2022/05/21 08:15:33;;;;;;;1.70;1.60;;;21.40;48.50;;;;;;5029065;28;20945;-57
2022/05/21 08:18:00;;;;;;;2.57;1.87;;;21.40;48.50;;;;;;5029470;28;20459;-56
2022/05/21 08:20:26;;;;;;;2.27;2.07;;;21.40;48.50;;;;;;5028085;28;20499;-56
2022/05/21 08:28:20;;;;;;;2.30;2.10;;;21.50;48.60;;;;;;5029620;28;20478;-57
2022/05/21 08:30:48;;;;;;;2.70;2.20;;;21.40;48.50;;;;;;5029890;28;20444;-58
2022/05/21 08:33:16;;;;;;;3.53;2.00;;;21.40;48.50;;;;;;5028888;28;20235;-58
2022/05/21 08:35:41;;;;;;;2.10;1.90;;;21.40;48.50;;;;;;5030996;28;20452;-57
2022/05/21 08:38:09;;;;;;;2.60;2.23;;;21.40;48.50;;;;;;5030197;28;20539;-58
2022/05/21 08:40:56;;;;;;;2.03;1.73;;;21.40;48.40;;;;;;5030139;28;20223;-57
2022/05/21 08:43:29;;;;;;;2.90;2.40;;;21.40;48.30;;;;;;5026894;28;20452;-57
2022/05/21 08:46:33;;;;;;;2.70;2.50;;;21.40;48.30;;;;;;5027733;28;20460;-58
2022/05/21 08:49:02;;;;;;;4.13;1.70;;;21.40;48.30;;;;;;5029919;28;20456;-57
2022/05/21 08:51:32;;;;;;;2.20;2.10;;;21.40;48.30;;;;;;5028934;28;21026;-58
2022/05/21 08:54:00;;;;;;;2.67;2.27;;;21.40;48.30;;;;;;5029144;28;20856;-57
2022/05/21 08:56:26;;;;;;;2.10;2.00;;;21.40;49.10;;;;;;5027378;28;20451;-57
2022/05/21 08:59:01;;;;;;;2.20;2.10;;;21.40;48.30;;;;;;5030344;28;20445;-57
2022/05/21 09:01:26;;;;;;;2.20;1.73;;;21.40;48.30;;;;;;5029234;28;23712;-57
2022/05/21 09:03:54;;;;;;;2.90;2.33;;;21.40;48.40;;;;;;5006509;28;21008;-57
2022/05/21 09:06:27;;;;;;;3.00;2.70;;;21.40;48.50;;;;;;5028490;28;20231;-57
2022/05/21 09:09:11;;;;;;;2.10;1.90;;;21.40;48.40;;;;;;5028728;28;20506;-57
2022/05/21 09:11:55;;;;;;;10.03;2.63;;;21.40;48.40;;;;;;5027699;28;20472;-57
2022/05/21 09:14:33;;;;;;;2.50;2.40;;;21.40;48.40;;;;;;5027001;28;20463;-56
2022/05/21 09:17:00;;;;;;;2.70;2.50;;;21.40;48.30;;;;;;5027013;28;20499;-57
2022/05/21 09:19:27;;;;;;;2.60;2.33;;;21.40;48.40;;;;;;5029484;28;20464;-56
2022/05/21 09:22:01;;;;;;;2.67;2.47;;;21.40;48.30;;;;;;5027446;28;20536;-57
2022/05/21 09:24:47;;;;;;;2.83;2.63;;;21.40;48.30;;;;;;5028966;28;20479;-57
2022/05/21 09:27:33;;;;;;;2.30;2.17;;;21.40;48.40;;;;;;5028483;28;20461;-56
2022/05/21 09:30:14;;;;;;;2.27;1.90;;;21.40;48.40;;;;;;5025951;28;20431;-56
2022/05/21 09:32:42;;;;;;;1.80;1.70;;;21.40;49.20;;;;;;5029699;28;20486;-56
2022/05/21 09:35:12;;;;;;;5.07;2.30;;;21.40;48.50;;;;;;5028167;28;20471;-56
2022/05/21 09:37:39;;;;;;;2.20;2.10;;;21.40;48.50;;;;;;5027529;28;20546;-58
2022/05/21 09:40:28;;;;;;;3.53;2.33;;;21.40;48.50;;;;;;5027947;28;20929;-56
2022/05/21 09:45:41;;;;;;;2.33;2.20;;;21.40;48.50;;;;;;5024804;28;20503;-57
2022/05/21 09:48:06;;;;;;;2.87;2.67;;;21.40;48.50;;;;;;5027363;28;20466;-57
2022/05/21 09:50:44;;;;;;;2.50;2.30;;;21.40;48.50;;;;;;5025919;28;20516;-56
2022/05/21 09:53:39;;;;;;;2.67;2.43;;;21.40;48.50;;;;;;5026491;28;20230;-56
2022/05/21 09:56:15;;;;;;;2.30;2.20;;;21.40;48.50;;;;;;5026622;28;20777;-56
2022/05/21 09:58:41;;;;;;;2.50;2.40;;;21.40;48.60;;;;;;5027800;28;20447;-57
2022/05/21 10:01:16;;;;;;;2.20;2.10;;;21.40;48.60;;;;;;5028129;28;20444;-58
2022/05/21 10:03:46;;;;;;;1.97;1.80;;;21.40;48.60;;;;;;5028119;28;20819;-57
2022/05/21 10:06:20;;;;;;;2.63;2.43;;;21.40;48.60;;;;;;5025994;28;20484;-56
2022/05/21 10:11:46;;;;;;;2.00;1.90;;;21.40;48.60;;;;;;5026487;28;21070;-58
2022/05/21 10:14:19;;;;;;;2.33;2.10;;;21.40;48.60;;;;;;5027870;28;20542;-56
2022/05/21 10:16:48;;;;;;;2.20;2.00;;;21.40;48.70;;;;;;5027690;28;21283;-56
2022/05/21 10:19:23;;;;;;;2.23;2.07;;;21.40;48.60;;;;;;5028652;28;20453;-56
2022/05/21 10:22:07;;;;;;;2.27;2.13;;;21.40;48.70;;;;;;5028059;28;20498;-56
2022/05/21 10:24:54;;;;;;;2.57;2.37;;;21.40;48.70;;;;;;5026541;28;20972;-56
2022/05/21 10:27:29;;;;;;;2.33;2.13;;;21.40;48.70;;;;;;5025190;28;20534;-57
2022/05/21 10:30:19;;;;;;;3.30;2.40;;;21.40;48.70;;;;;;5025482;28;20447;-57
2022/05/21 10:33:01;;;;;;;2.10;2.00;;;21.40;48.70;;;;;;5027047;28;20467;-57
2022/05/21 10:35:56;;;;;;;2.20;2.00;;;21.40;48.70;;;;;;5022492;28;20453;-57
2022/05/21 10:38:27;;;;;;;6.37;3.23;;;21.40;48.70;;;;;;5026880;28;20460;-58
2022/05/21 10:41:44;;;;;;;5.70;2.67;;;21.40;48.70;;;;;;5028719;28;20459;-58
2022/05/21 10:44:34;;;;;;;2.10;2.00;;;21.40;48.70;;;;;;5023708;28;20984;-57
2022/05/21 10:47:35;;;;;;;2.40;2.20;;;21.40;48.70;;;;;;5027655;28;20464;-58
2022/05/21 10:50:25;;;;;;;2.90;2.60;;;21.40;48.70;;;;;;5012571;28;20517;-57
2022/05/21 10:53:27;;;;;;;2.90;2.40;;;21.40;48.70;;;;;;5024790;28;20460;-57
2022/05/21 10:56:18;;;;;;;2.63;2.43;;;21.40;48.60;;;;;;5026856;28;20455;-62
2022/05/21 10:58:53;;;;;;;2.83;2.37;;;21.40;48.60;;;;;;5027250;28;20540;-59
2022/05/21 11:02:08;;;;;;;2.53;2.30;;;21.40;48.60;;;;;;5026576;28;20487;-58
2022/05/21 11:04:49;;;;;;;2.90;2.07;;;21.40;48.50;;;;;;4970158;28;20452;-58
2022/05/21 11:07:25;;;;;;;1.97;1.87;;;21.40;48.50;;;;;;5040470;28;20816;-58
2022/05/21 11:10:21;;;;;;;2.63;2.03;;;21.40;48.50;;;;;;5027288;28;20444;-58
2022/05/21 11:12:46;;;;;;;2.53;2.43;;;21.40;48.30;;;;;;5026047;28;20460;-58
2022/05/21 11:15:37;;;;;;;2.63;2.30;;;21.50;48.50;;;;;;5027702;28;20453;-58
2022/05/21 11:18:15;;;;;;;2.27;2.17;;;21.50;48.40;;;;;;5026538;28;20222;-58
2022/05/21 11:20:47;;;;;;;2.93;2.33;;;21.50;48.40;;;;;;5026295;28;20452;-58
2022/05/21 11:23:18;;;;;;;2.03;1.90;;;21.50;48.40;;;;;;5024769;28;20502;-58
2022/05/21 11:26:06;;;;;;;3.10;2.63;;;21.50;48.40;;;;;;5025466;28;20448;-58
2022/05/21 11:28:43;;;;;;;2.30;2.20;;;21.50;48.40;;;;;;5027183;28;20460;-57
2022/05/21 11:37:22;;;;;;;2.63;2.40;;;21.40;48.30;;;;;;5026478;28;20496;-58
2022/05/21 11:39:53;;;;;;;2.20;2.10;;;21.40;48.30;;;;;;5027001;28;20521;-58
2022/05/21 11:42:48;;;;;;;2.90;2.70;;;21.40;48.30;;;;;;5025341;28;20460;-58
2022/05/21 11:45:25;;;;;;;2.67;2.50;;;21.50;48.40;;;;;;5023982;28;20502;-58
2022/05/21 11:48:11;;;;;;;2.10;2.00;;;21.40;48.30;;;;;;5024285;28;20444;-58
2022/05/21 11:50:37;;;;;;;2.87;2.20;;;21.40;48.30;;;;;;5024851;28;21020;-58
2022/05/21 11:53:33;;;;;;;2.30;2.20;;;21.40;48.20;;;;;;5026856;28;20448;-58
2022/05/21 11:56:03;;;;;;;2.10;2.00;;;21.40;48.10;;;;;;5023584;28;20215;-58
2022/05/21 11:59:00;;;;;;;3.57;2.73;;;21.40;48.00;;;;;;5026899;28;21042;-58
2022/05/21 12:01:40;;;;;;;2.50;2.30;;;21.40;47.90;;;;;;5026758;28;20503;-58
2022/05/21 12:04:07;;;;;;;2.77;2.63;;;21.40;47.90;;;;;;5027428;28;20870;-58
2022/05/21 12:06:41;;;;;;;2.30;2.10;;;21.40;48.00;;;;;;5030479;28;20452;-57
2022/05/21 12:09:26;;;;;;;3.87;2.20;;;21.40;48.00;;;;;;5030051;28;20967;-58
2022/05/21 12:12:12;;;;;;;2.20;2.10;;;21.40;48.00;;;;;;5027549;28;21024;-59
2022/05/21 12:14:50;;;;;;;2.23;2.13;;;21.40;48.00;;;;;;5029310;28;20459;-59
2022/05/21 12:17:50;;;;;;;3.13;2.93;;;21.40;48.10;;;;;;5031719;28;20456;-58
2022/05/21 12:20:36;;;;;;;2.53;2.43;;;21.40;48.10;;;;;;5030578;28;20444;-57
2022/05/21 12:23:01;;;;;;;2.83;2.73;;;21.40;48.10;;;;;;5027525;28;20519;-57
2022/05/21 12:25:54;;;;;;;2.50;2.30;;;21.40;48.10;;;;;;5030521;28;20635;-57
2022/05/21 12:28:21;;;;;;;2.40;2.30;;;21.40;48.10;;;;;;5016823;28;20234;-57
2022/05/21 12:30:48;;;;;;;2.27;2.17;;;21.40;48.10;;;;;;5029594;28;20485;-58
2022/05/21 12:33:31;;;;;;;2.53;2.43;;;21.40;48.10;;;;;;5030724;28;20436;-58
2022/05/21 12:36:06;;;;;;;2.70;2.60;;;21.40;48.10;;;;;;5029265;28;20444;-60
2022/05/21 12:38:35;;;;;;;2.20;2.10;;;21.40;48.10;;;;;;5029670;28;20474;-58
2022/05/21 12:41:25;;;;;;;2.60;2.40;;;21.40;48.10;;;;;;5030941;28;20540;-58
2022/05/21 12:43:52;;;;;;;3.03;2.83;;;21.40;48.10;;;;;;5029176;28;20492;-58
2022/05/21 12:46:22;;;;;;;2.53;2.33;;;21.40;48.10;;;;;;5029522;28;20444;-58
2022/05/21 12:48:49;;;;;;;2.83;2.63;;;21.40;48.10;;;;;;5026549;28;20456;-58
2022/05/21 12:51:28;;;;;;;2.80;2.70;;;21.40;48.10;;;;;;5030018;28;20423;-58
2022/05/21 12:53:55;;;;;;;2.73;2.53;;;21.40;48.10;;;;;;5029972;28;20449;-58
2022/05/21 12:56:24;;;;;;;3.30;2.57;;;21.40;48.20;;;;;;5029289;28;20456;-58
2022/05/21 12:59:05;;;;;;;2.70;2.50;;;21.40;48.20;;;;;;5026144;28;20449;-58
2022/05/21 13:01:31;;;;;;;2.63;2.53;;;21.40;48.10;;;;;;5026624;28;20477;-58
2022/05/21 13:04:01;;;;;;;2.27;2.17;;;21.40;48.20;;;;;;5029191;28;20444;-58
2022/05/21 13:06:32;;;;;;;2.63;2.43;;;21.40;48.20;;;;;;5029282;28;20446;-58
2022/05/21 13:09:00;;;;;;;2.97;2.47;;;21.40;48.20;;;;;;5024672;28;20835;-58
2022/05/21 13:11:35;;;;;;;2.50;2.40;;;21.40;48.20;;;;;;5030251;28;20821;-58
2022/05/21 13:14:08;;;;;;;2.57;2.37;;;21.40;48.20;;;;;;5028163;28;20467;-58
2022/05/21 13:16:34;;;;;;;3.50;2.40;;;21.40;48.20;;;;;;5026462;28;20472;-58
2022/05/21 13:19:19;;;;;;;2.67;2.47;;;21.40;48.20;;;;;;5029909;28;20483;-58
2022/05/21 13:21:58;;;;;;;2.33;2.23;;;21.40;48.20;;;;;;5028496;28;20219;-58
2022/05/21 13:24:33;;;;;;;2.60;2.50;;;21.40;48.20;;;;;;5028822;28;20546;-57
2022/05/21 13:27:15;;;;;;;2.43;2.30;;;21.40;48.30;;;;;;5027759;28;20460;-58
2022/05/21 13:29:41;;;;;;;2.70;2.50;;;21.40;48.30;;;;;;5027281;28;20446;-58
2022/05/21 13:32:33;;;;;;;3.03;2.13;;;21.30;48.20;;;;;;5027165;28;20445;-59
2022/05/21 13:35:04;;;;;;;2.47;2.33;;;21.40;48.30;;;;;;5025426;28;20464;-58